createdAt,value
2022-11-26T00:00:03.159Z,7.13
2022-11-26T00:02:33.316Z,4.90
2022-11-26T00:05:02.322Z,8.93
2022-11-26T00:07:32.351Z,6.28
2022-11-26T00:10:02.010Z,5.95
2022-11-26T00:12:35.032Z,5.45
2022-11-26T00:15:17.446Z,4.63
2022-11-26T00:17:46.430Z,5.35
2022-11-26T00:20:16.327Z,7.03
2022-11-26T00:22:52.108Z,7.95
2022-11-26T00:25:27.048Z,4.07
2022-11-26T00:27:59.144Z,4.53
2022-11-26T00:30:29.210Z,6.25
2022-11-26T00:32:59.405Z,2.30
2022-11-26T00:35:28.564Z,15.30
2022-11-26T00:37:58.906Z,5.10
2022-11-26T00:40:32.744Z,4.57
2022-11-26T00:43:02.224Z,7.18
2022-11-26T00:45:32.587Z,4.05
2022-11-26T00:48:03.015Z,12.93
2022-11-26T00:50:45.018Z,4.05
2022-11-26T00:53:19.305Z,5.20
2022-11-26T00:55:50.541Z,6.97
2022-11-26T00:58:38.306Z,6.47
2022-11-26T01:01:07.354Z,13.73
2022-11-26T01:03:36.351Z,9.82
2022-11-26T01:06:05.266Z,8.07
2022-11-26T01:08:36.972Z,7.72
2022-11-26T01:11:07.178Z,6.10
2022-11-26T01:13:36.060Z,6.63
2022-11-26T01:16:17.389Z,7.03
2022-11-26T01:18:46.760Z,9.68
2022-11-26T01:21:16.103Z,6.47
2022-11-26T01:23:45.095Z,9.20
2022-11-26T01:26:24.898Z,11.30
2022-11-26T01:28:54.200Z,8.63
2022-11-26T01:31:28.686Z,8.48
2022-11-26T01:33:58.031Z,5.95
2022-11-26T01:36:41.658Z,7.90
2022-11-26T01:39:21.972Z,5.65
2022-11-26T01:42:27.059Z,6.57
2022-11-26T01:44:56.056Z,8.38
2022-11-26T01:47:30.294Z,5.72
2022-11-26T01:50:30.091Z,5.03
2022-11-26T01:53:37.340Z,4.97
2022-11-26T01:56:18.182Z,6.25
2022-11-26T01:58:58.090Z,6.30
2022-11-26T02:01:27.161Z,4.07
2022-11-26T02:04:00.638Z,5.95
2022-11-26T02:06:34.849Z,34.80
2022-11-26T02:09:07.156Z,6.65
2022-11-26T02:11:36.917Z,52.03
2022-11-26T02:14:22.342Z,6.50
2022-11-26T02:16:54.379Z,20.23
2022-11-26T02:19:49.929Z,51.50
2022-11-26T02:22:55.781Z,12.43
2022-11-26T02:25:30.979Z,25.55
2022-11-26T02:28:02.942Z,16.02
2022-11-26T02:30:38.206Z,18.27
2022-11-26T02:33:19.500Z,23.48
2022-11-26T02:36:02.962Z,46.05
2022-11-26T02:38:34.028Z,15.67
2022-11-26T02:41:03.418Z,36.60
2022-11-26T02:43:35.331Z,26.15
2022-11-26T02:46:09.085Z,31.38
2022-11-26T02:48:44.527Z,12.80
2022-11-26T02:51:24.231Z,14.68
2022-11-26T02:53:55.116Z,17.58
2022-11-26T02:56:28.873Z,20.45
2022-11-26T02:58:59.287Z,23.55
2022-11-26T03:01:39.588Z,23.30
2022-11-26T03:04:19.154Z,33.60
2022-11-26T03:06:49.374Z,14.48
2022-11-26T03:09:19.772Z,19.70
2022-11-26T03:11:49.299Z,10.70
2022-11-26T03:14:18.694Z,9.52
2022-11-26T03:16:48.062Z,7.20
2022-11-26T03:19:21.312Z,14.63
2022-11-26T03:21:50.951Z,25.63
2022-11-26T03:24:20.593Z,11.98
2022-11-26T03:26:50.123Z,28.20
2022-11-26T03:29:19.399Z,29.92
2022-11-26T03:31:48.544Z,22.23
2022-11-26T03:34:17.832Z,19.30
2022-11-26T03:36:47.073Z,21.33
2022-11-26T03:39:16.422Z,12.30
2022-11-26T03:41:45.542Z,29.80
2022-11-26T03:44:14.924Z,9.73
2022-11-26T03:46:44.218Z,28.55
2022-11-26T03:49:13.394Z,16.15
2022-11-26T03:51:42.476Z,23.63
2022-11-26T03:54:11.612Z,18.00
2022-11-26T03:56:40.912Z,14.38
2022-11-26T03:59:10.083Z,22.75
2022-11-26T04:01:39.489Z,13.38
2022-11-26T04:04:08.480Z,16.55
2022-11-26T04:06:37.617Z,16.58
2022-11-26T04:09:06.723Z,5.80
2022-11-26T04:11:35.776Z,5.97
2022-11-26T04:14:05.040Z,25.63
2022-11-26T04:16:34.105Z,6.78
2022-11-26T04:19:03.214Z,6.28
2022-11-26T04:21:32.291Z,6.63
2022-11-26T04:24:01.425Z,6.10
2022-11-26T04:26:30.809Z,7.57
2022-11-26T04:28:59.858Z,6.78
2022-11-26T04:31:29.071Z,8.55
2022-11-26T04:33:58.184Z,3.67
2022-11-26T04:36:27.260Z,4.18
2022-11-26T04:38:56.545Z,2.92
2022-11-26T04:41:25.737Z,3.92
2022-11-26T04:43:54.797Z,3.05
2022-11-26T04:46:23.861Z,4.65
2022-11-26T04:48:53.094Z,4.22
2022-11-26T04:51:22.279Z,3.85
2022-11-26T04:53:55.484Z,3.22
2022-11-26T04:56:25.280Z,3.58
2022-11-26T04:58:54.298Z,3.28
2022-11-26T05:01:23.409Z,3.13
2022-11-26T05:03:52.476Z,9.55
2022-11-26T05:06:21.628Z,3.63
2022-11-26T05:08:51.080Z,2.28
2022-11-26T05:11:20.448Z,2.47
2022-11-26T05:13:49.496Z,12.05
2022-11-26T05:16:18.674Z,11.35
2022-11-26T05:18:47.826Z,12.48
2022-11-26T05:21:16.911Z,13.23
2022-11-26T05:23:45.971Z,14.10
2022-11-26T05:26:15.065Z,5.70
2022-11-26T05:28:44.703Z,8.52
2022-11-26T05:31:14.019Z,6.70
2022-11-26T05:33:43.075Z,18.08
2022-11-26T05:36:12.413Z,8.32
2022-11-26T05:38:41.436Z,11.73
2022-11-26T05:41:10.481Z,11.57
2022-11-26T05:43:39.552Z,19.10
2022-11-26T05:46:10.710Z,6.85
2022-11-26T05:48:39.731Z,13.40
2022-11-26T05:51:08.896Z,8.52
2022-11-26T05:53:37.889Z,3.72
2022-11-26T05:56:07.273Z,9.80
2022-11-26T05:58:36.399Z,10.30
2022-11-26T06:01:10.574Z,9.95
2022-11-26T06:03:40.003Z,1.52
2022-11-26T06:06:09.614Z,2.08
2022-11-26T06:08:39.718Z,2.15
2022-11-26T06:11:08.793Z,1.50
2022-11-26T06:13:37.887Z,2.22
2022-11-26T06:16:07.304Z,4.18
2022-11-26T06:18:38.254Z,3.85
2022-11-26T06:21:08.826Z,2.08
2022-11-26T06:23:37.911Z,1.90
2022-11-26T06:26:12.728Z,2.30
2022-11-26T06:28:41.898Z,3.10
2022-11-26T06:31:11.809Z,3.22
2022-11-26T06:33:40.914Z,2.95
2022-11-26T06:36:11.343Z,15.55
2022-11-26T06:38:40.397Z,7.05
2022-11-26T06:41:10.635Z,2.95
2022-11-26T06:43:39.685Z,3.00
2022-11-26T06:46:12.722Z,3.83
2022-11-26T06:48:42.147Z,4.20
2022-11-26T06:51:14.847Z,19.08
2022-11-26T06:53:44.051Z,4.57
2022-11-26T06:56:18.737Z,2.72
2022-11-26T06:58:50.222Z,1.50
2022-11-26T07:01:25.331Z,1.95
2022-11-26T07:03:54.945Z,2.20
2022-11-26T07:06:32.372Z,4.07
2022-11-26T07:09:06.613Z,1.98
2022-11-26T07:11:36.468Z,3.47
2022-11-26T07:14:05.652Z,2.30
2022-11-26T07:16:35.173Z,12.15
2022-11-26T07:19:04.577Z,8.02
2022-11-26T07:21:33.893Z,7.53
2022-11-26T07:24:02.839Z,7.35
2022-11-26T07:26:31.928Z,5.55
2022-11-26T07:29:00.854Z,6.88
2022-11-26T07:31:29.837Z,12.50
2022-11-26T07:33:59.368Z,10.00
2022-11-26T07:36:30.532Z,3.53
2022-11-26T07:39:02.208Z,2.88
2022-11-26T07:41:31.896Z,2.92
2022-11-26T07:44:00.778Z,12.20
2022-11-26T07:46:29.866Z,6.38
2022-11-26T07:48:59.109Z,3.72
2022-11-26T07:51:31.126Z,21.00
2022-11-26T07:54:05.823Z,6.20
2022-11-26T07:56:35.224Z,3.92
2022-11-26T07:59:04.311Z,2.75
2022-11-26T08:01:33.983Z,12.20
2022-11-26T08:04:06.758Z,7.22
2022-11-26T08:06:35.924Z,8.23
2022-11-26T08:09:05.731Z,8.93
2022-11-26T08:11:35.950Z,10.00
2022-11-26T08:14:07.666Z,8.38
2022-11-26T08:16:37.046Z,19.48
2022-11-26T08:19:09.316Z,9.02
2022-11-26T08:21:39.510Z,7.88
2022-11-26T08:24:13.280Z,2.92
2022-11-26T08:26:44.337Z,3.10
2022-11-26T08:29:14.810Z,2.80
2022-11-26T08:31:46.350Z,2.65
2022-11-26T08:34:17.911Z,5.25
2022-11-26T08:36:47.610Z,3.85
2022-11-26T08:39:18.571Z,12.93
2022-11-26T08:41:51.933Z,2.97
2022-11-26T08:44:22.197Z,2.17
2022-11-26T08:46:51.253Z,4.70
2022-11-26T08:49:20.245Z,10.73
2022-11-26T08:51:49.162Z,11.43
2022-11-26T08:54:18.375Z,6.30
2022-11-26T08:56:47.546Z,4.38
2022-11-26T08:59:17.396Z,13.93
2022-11-26T09:01:46.941Z,11.68
2022-11-26T09:04:15.950Z,6.70
2022-11-26T09:06:45.060Z,7.50
2022-11-26T09:09:14.239Z,5.60
2022-11-26T09:11:47.925Z,15.43
2022-11-26T09:14:18.938Z,13.85
2022-11-26T09:16:49.061Z,20.50
2022-11-26T09:19:19.029Z,12.93
2022-11-26T09:21:48.301Z,8.85
2022-11-26T09:24:18.795Z,3.33
2022-11-26T09:26:49.445Z,3.42
2022-11-26T09:29:21.271Z,2.75
2022-11-26T09:34:41.320Z,1.92
2022-11-26T09:37:10.527Z,5.00
2022-11-26T09:39:39.421Z,9.73
2022-11-26T09:42:52.766Z,18.00
2022-11-26T09:45:45.281Z,13.60
2022-11-26T09:48:19.421Z,9.82
2022-11-26T09:50:49.355Z,27.25
2022-11-26T09:53:22.841Z,14.48
2022-11-26T09:55:54.783Z,14.82
2022-11-26T09:58:43.863Z,16.25
2022-11-26T10:01:19.968Z,22.80
2022-11-26T10:03:49.084Z,28.05
2022-11-26T10:06:42.410Z,14.05
2022-11-26T10:09:38.653Z,3.38
2022-11-26T10:13:03.427Z,6.15
2022-11-26T10:15:59.718Z,7.07
2022-11-26T10:19:05.548Z,8.40
2022-11-26T10:22:01.103Z,10.55
2022-11-26T10:24:42.880Z,7.93
2022-11-26T10:27:17.249Z,8.10
2022-11-26T10:29:51.281Z,10.65
2022-11-26T10:32:32.183Z,13.88
2022-11-26T10:35:01.504Z,12.75
2022-11-26T10:37:31.313Z,12.05
2022-11-26T10:40:31.900Z,6.35
2022-11-26T10:43:09.861Z,18.02
2022-11-26T10:45:51.033Z,12.38
2022-11-26T10:48:29.315Z,6.68
2022-11-26T10:51:23.684Z,9.80
2022-11-26T10:54:06.747Z,6.53
2022-11-26T10:56:43.471Z,7.85
2022-11-26T10:59:32.604Z,5.05
2022-11-26T11:02:26.069Z,8.80
2022-11-26T11:04:57.792Z,10.37
2022-11-26T11:07:45.277Z,7.03
2022-11-26T11:10:14.323Z,6.15
2022-11-26T11:13:15.818Z,9.05
2022-11-26T11:15:45.441Z,8.35
2022-11-26T11:18:14.670Z,6.70
2022-11-26T11:20:52.506Z,12.07
2022-11-26T11:23:52.124Z,7.32
2022-11-26T11:26:24.825Z,12.35
2022-11-26T11:28:56.404Z,12.30
2022-11-26T11:31:28.375Z,11.63
2022-11-26T11:34:22.771Z,18.75
2022-11-26T11:39:33.263Z,16.23
2022-11-26T11:42:05.820Z,12.80
2022-11-26T11:44:47.457Z,12.95
2022-11-26T11:47:43.351Z,17.02
2022-11-26T11:50:21.195Z,11.18
2022-11-26T11:53:08.649Z,9.95
2022-11-26T11:56:03.716Z,12.85
2022-11-26T11:58:57.223Z,11.52
2022-11-26T12:01:43.603Z,13.37
2022-11-26T12:04:46.335Z,17.60
2022-11-26T12:07:36.616Z,15.05
2022-11-26T12:10:35.742Z,18.65
2022-11-26T12:13:08.855Z,18.60
2022-11-26T12:15:48.854Z,19.80
2022-11-26T12:18:32.710Z,17.05
2022-11-26T12:21:12.986Z,15.43
2022-11-26T12:24:19.434Z,18.35
2022-11-26T12:27:04.810Z,30.85
2022-11-26T12:29:49.481Z,53.53
2022-11-26T12:33:01.857Z,26.75
2022-11-26T12:35:37.287Z,38.17
2022-11-26T12:38:37.538Z,24.23
2022-11-26T12:41:21.657Z,28.63
2022-11-26T12:43:59.950Z,28.55
2022-11-26T12:46:41.029Z,20.17
2022-11-26T12:49:15.871Z,22.50
2022-11-26T12:52:03.347Z,21.17
2022-11-26T12:55:00.358Z,21.77
2022-11-26T12:57:34.687Z,21.27
2022-11-26T13:00:14.147Z,34.05
2022-11-26T13:02:45.697Z,45.10
2022-11-26T13:05:26.008Z,36.15
2022-11-26T13:08:18.365Z,26.58
2022-11-26T13:11:05.933Z,24.17
2022-11-26T13:13:59.559Z,19.83
2022-11-26T13:16:41.216Z,22.23
2022-11-26T13:19:28.414Z,20.00
2022-11-26T13:22:06.281Z,16.95
2022-11-26T13:24:44.352Z,20.35
2022-11-26T13:27:16.399Z,18.98
2022-11-26T13:30:03.765Z,23.02
2022-11-26T13:33:23.276Z,29.98
2022-11-26T13:36:28.896Z,23.63
2022-11-26T13:38:57.773Z,28.80
2022-11-26T13:41:45.601Z,27.23
2022-11-26T13:44:37.425Z,27.05
2022-11-26T13:47:14.398Z,22.50
2022-11-26T13:50:01.901Z,20.13
2022-11-26T13:52:41.061Z,19.52
2022-11-26T13:55:19.061Z,19.92
2022-11-26T13:57:56.924Z,18.60
2022-11-26T14:00:31.928Z,16.98
2022-11-26T14:03:02.720Z,20.25
2022-11-26T14:05:53.121Z,22.70
2022-11-26T14:08:44.468Z,18.65
2022-11-26T14:11:34.394Z,24.95
2022-11-26T14:14:29.263Z,20.80
2022-11-26T14:17:04.493Z,17.00
2022-11-26T14:19:42.704Z,17.88
2022-11-26T14:22:33.175Z,21.98
2022-11-26T14:25:05.678Z,26.55
2022-11-26T14:27:37.331Z,17.88
2022-11-26T14:30:09.644Z,16.55
2022-11-26T14:32:41.271Z,22.45
2022-11-26T14:35:22.810Z,20.88
2022-11-26T14:37:56.974Z,18.42
2022-11-26T14:40:31.796Z,22.58
2022-11-26T14:43:21.269Z,19.38
2022-11-26T14:46:03.027Z,18.42
2022-11-26T14:48:34.237Z,20.17
2022-11-26T14:51:05.733Z,19.40
2022-11-26T14:53:36.134Z,17.35
2022-11-26T14:56:06.655Z,15.63
2022-11-26T14:58:41.375Z,20.05
2022-11-26T15:01:24.405Z,21.05
2022-11-26T15:04:07.490Z,20.50
2022-11-26T15:06:43.671Z,17.63
2022-11-26T15:09:25.700Z,19.02
2022-11-26T15:12:13.621Z,16.13
2022-11-26T15:14:55.013Z,14.55
2022-11-26T15:17:29.541Z,15.85
2022-11-26T15:20:02.995Z,13.55
2022-11-26T15:22:58.127Z,15.45
2022-11-26T15:25:36.413Z,12.73
2022-11-26T15:28:06.571Z,17.85
2022-11-26T15:30:39.772Z,15.98
2022-11-26T15:33:14.463Z,15.60
2022-11-26T15:35:44.872Z,16.52
2022-11-26T15:38:19.444Z,18.60
2022-11-26T15:40:51.880Z,10.40
2022-11-26T15:43:37.726Z,15.70
2022-11-26T15:46:22.145Z,13.25
2022-11-26T15:48:56.512Z,10.50
2022-11-26T15:51:33.676Z,8.23
2022-11-26T15:54:09.308Z,9.32
2022-11-26T15:56:40.807Z,10.07
2022-11-26T15:59:16.971Z,10.95
2022-11-26T16:01:48.235Z,15.45
2022-11-26T16:04:35.423Z,39.70
2022-11-26T16:07:15.050Z,21.88
2022-11-26T16:09:45.126Z,16.95
2022-11-26T16:12:34.921Z,14.27
2022-11-26T16:15:27.439Z,8.55
2022-11-26T16:17:56.396Z,14.38
2022-11-26T16:20:30.970Z,9.98
2022-11-26T16:23:02.253Z,11.40
2022-11-26T16:25:39.224Z,8.52
2022-11-26T16:28:14.419Z,8.57
2022-11-26T16:30:45.852Z,7.85
2022-11-26T16:33:14.857Z,7.32
2022-11-26T16:35:45.834Z,8.32
2022-11-26T16:38:24.059Z,17.13
2022-11-26T16:40:53.711Z,8.68
2022-11-26T16:43:22.836Z,9.68
2022-11-26T16:45:55.575Z,5.25
2022-11-26T16:48:27.436Z,7.40
2022-11-26T16:50:57.690Z,4.80
2022-11-26T16:53:26.559Z,7.10
2022-11-26T16:55:55.811Z,7.90
2022-11-26T16:58:37.472Z,6.43
2022-11-26T17:01:06.390Z,5.65
2022-11-26T17:03:35.374Z,5.80
2022-11-26T17:06:12.510Z,5.47
2022-11-26T17:08:45.060Z,4.40
2022-11-26T17:11:16.997Z,4.47
2022-11-26T17:13:45.951Z,3.88
2022-11-26T17:16:20.661Z,5.95
2022-11-26T17:18:51.059Z,5.18
2022-11-26T17:21:19.971Z,5.00
